createdAt,value
2023-01-19T00:00:52.669Z,100443.45
2023-01-19T00:03:20.691Z,100443.45
2023-01-19T00:05:48.639Z,100452.45
2023-01-19T00:08:16.545Z,100453.27
2023-01-19T00:10:47.408Z,100451.30
2023-01-19T00:13:15.586Z,100453.59
2023-01-19T00:15:43.515Z,100447.41
2023-01-19T00:18:11.582Z,100451.92
2023-01-19T00:20:40.325Z,100461.18
2023-01-19T00:23:09.201Z,100461.18
2023-01-19T00:25:43.606Z,100456.70
2023-01-19T00:28:12.610Z,100454.18
2023-01-19T00:30:40.704Z,100462.62
2023-01-19T00:33:08.581Z,100464.28
2023-01-19T00:35:36.815Z,100461.47
2023-01-19T00:38:04.827Z,100472.16
2023-01-19T00:40:32.679Z,100469.38
2023-01-19T00:43:01.920Z,100465.16
2023-01-19T00:45:29.979Z,100472.46
2023-01-19T00:48:00.897Z,100463.76
2023-01-19T00:50:29.415Z,100465.98
2023-01-19T00:52:57.921Z,100462.29
2023-01-19T00:55:25.860Z,100469.05
2023-01-19T00:57:53.694Z,100470.46
2023-01-19T01:00:22.176Z,100474.68
2023-01-19T01:02:51.003Z,100472.16
2023-01-19T01:05:19.323Z,100479.45
2023-01-19T01:07:48.027Z,100479.20
2023-01-19T01:10:20.800Z,100476.97
2023-01-19T01:12:55.160Z,100491.33
2023-01-19T01:15:36.507Z,100481.81
2023-01-19T01:18:04.335Z,100490.18
2023-01-19T01:20:34.791Z,100490.21
2023-01-19T01:23:03.140Z,100490.24
2023-01-19T01:25:32.232Z,100494.76
2023-01-19T01:28:00.098Z,100497.57
2023-01-19T01:30:27.872Z,100497.83
2023-01-19T01:32:55.954Z,100500.94
2023-01-19T01:35:24.245Z,100507.64
2023-01-19T01:37:52.085Z,100506.23
2023-01-19T01:40:20.671Z,100507.34
2023-01-19T01:42:48.477Z,100512.12
2023-01-19T01:45:35.373Z,100510.98
2023-01-19T01:48:07.217Z,100510.12
2023-01-19T01:50:35.618Z,100512.67
2023-01-19T01:53:08.131Z,100517.71
2023-01-19T01:55:46.684Z,100512.38
2023-01-19T01:58:14.539Z,100516.63
2023-01-19T02:01:01.135Z,100519.12
2023-01-19T02:03:29.127Z,100513.27
2023-01-19T02:05:58.639Z,100512.38
2023-01-19T02:08:54.238Z,100511.83
2023-01-19T02:11:41.690Z,100513.79
2023-01-19T02:14:09.557Z,100515.75
2023-01-19T02:16:37.890Z,100511.27
2023-01-19T02:19:08.849Z,100520.52
2023-01-19T02:21:44.563Z,100523.92
2023-01-19T02:24:12.582Z,100523.92
2023-01-19T02:26:42.073Z,100520.85
2023-01-19T02:29:20.275Z,100527.29
2023-01-19T02:31:48.189Z,100532.33
2023-01-19T02:34:17.767Z,100525.59
2023-01-19T02:36:57.434Z,100541.58
2023-01-19T02:39:33.156Z,100550.57
2023-01-19T02:42:03.928Z,100542.98
2023-01-19T02:44:31.900Z,100546.94
2023-01-19T02:46:59.642Z,100548.34
2023-01-19T02:49:40.253Z,100549.75
2023-01-19T02:52:12.320Z,100557.60
2023-01-19T02:54:59.520Z,100553.97
2023-01-19T02:58:02.417Z,100562.66
2023-01-19T03:00:42.018Z,100553.12
2023-01-19T03:03:49.107Z,100556.52
2023-01-19T03:06:27.109Z,100575.59
2023-01-19T03:09:02.398Z,100571.66
2023-01-19T03:11:33.984Z,100571.92
2023-01-19T03:14:15.985Z,100566.33
2023-01-19T03:16:44.248Z,100570.81
2023-01-19T03:19:22.711Z,100566.33
2023-01-19T03:21:59.269Z,100569.99
2023-01-19T03:24:29.441Z,100572.80
2023-01-19T03:27:00.638Z,100563.26
2023-01-19T03:29:30.366Z,100565.52
2023-01-19T03:31:58.339Z,100566.07
2023-01-19T03:34:26.146Z,100565.52
2023-01-19T03:36:59.184Z,100564.37
2023-01-19T03:39:27.823Z,100566.91
2023-01-19T03:41:58.744Z,100568.59
2023-01-19T03:44:27.402Z,100568.29
2023-01-19T03:46:55.229Z,100563.81
2023-01-19T03:49:23.036Z,100568.32
2023-01-19T03:51:50.918Z,100576.43
2023-01-19T03:54:18.757Z,100568.32
2023-01-19T03:56:46.617Z,100571.66
2023-01-19T03:59:19.111Z,100564.95
2023-01-19T04:01:47.586Z,100571.92
2023-01-19T04:04:16.751Z,100564.07
2023-01-19T04:06:45.067Z,100571.95
2023-01-19T04:09:19.280Z,100581.20
2023-01-19T04:11:47.784Z,100577.84
2023-01-19T04:14:15.582Z,100579.51
2023-01-19T04:16:43.377Z,100578.10
2023-01-19T04:19:11.240Z,100586.77
2023-01-19T04:21:39.067Z,100586.80
2023-01-19T04:24:07.261Z,100596.31
2023-01-19T04:26:34.996Z,100588.76
2023-01-19T04:29:07.300Z,100593.24
2023-01-19T04:31:36.860Z,100599.98
2023-01-19T04:34:09.746Z,100594.38
2023-01-19T04:36:37.630Z,100604.75
2023-01-19T04:39:06.222Z,100601.09
2023-01-19T04:41:34.232Z,100605.30
2023-01-19T04:44:02.068Z,100599.94
2023-01-19T04:46:29.950Z,100606.97
2023-01-19T04:48:57.813Z,100604.42
2023-01-19T04:51:25.845Z,100600.23
2023-01-19T04:53:53.774Z,100597.98
2023-01-19T04:56:21.851Z,100594.94
2023-01-19T04:58:54.470Z,100594.64
2023-01-19T05:01:22.373Z,100597.45
2023-01-19T05:03:50.232Z,100600.50
2023-01-19T05:06:18.085Z,100593.24
2023-01-19T05:08:50.893Z,100598.27
2023-01-19T05:11:18.849Z,100597.13
2023-01-19T05:13:46.669Z,100597.13
2023-01-19T05:16:17.525Z,100608.34
2023-01-19T05:18:45.420Z,100610.57
2023-01-19T05:21:13.263Z,100610.57
2023-01-19T05:23:41.071Z,100612.53
2023-01-19T05:26:09.660Z,100622.63
2023-01-19T05:28:39.142Z,100618.16
2023-01-19T05:31:07.216Z,100624.56
2023-01-19T05:33:35.289Z,100627.90
2023-01-19T05:36:03.256Z,100627.08
2023-01-19T05:38:35.272Z,100629.56
2023-01-19T05:41:03.612Z,100616.65
2023-01-19T05:43:31.426Z,100625.05
2023-01-19T05:45:59.182Z,100622.83
2023-01-19T05:48:27.124Z,100620.31
2023-01-19T05:50:59.007Z,100621.13
2023-01-19T05:53:26.934Z,100618.09
2023-01-19T05:55:54.912Z,100627.02
2023-01-19T05:58:22.691Z,100625.05
2023-01-19T06:00:50.522Z,100632.64
2023-01-19T06:03:18.824Z,100636.27
2023-01-19T06:05:46.804Z,100639.38
2023-01-19T06:08:14.661Z,100642.41
2023-01-19T06:10:42.557Z,100643.27
2023-01-19T06:13:12.386Z,100646.37
2023-01-19T06:15:40.487Z,100655.36
2023-01-19T06:18:08.280Z,100647.77
2023-01-19T06:20:37.306Z,100655.10
2023-01-19T06:23:05.346Z,100653.40
2023-01-19T06:25:33.148Z,100661.54
2023-01-19T06:28:01.076Z,100662.09
2023-01-19T06:30:30.266Z,100662.69
2023-01-19T06:33:03.194Z,100665.76
2023-01-19T06:35:31.432Z,100667.16
2023-01-19T06:37:59.486Z,100666.31
2023-01-19T06:40:27.502Z,100669.68
2023-01-19T06:42:55.379Z,100670.50
2023-01-19T06:45:23.204Z,100675.57
2023-01-19T06:47:51.012Z,100671.38
2023-01-19T06:50:18.985Z,100674.72
2023-01-19T06:52:46.902Z,100676.68
2023-01-19T06:55:19.691Z,100682.30
2023-01-19T06:57:47.661Z,100686.81
2023-01-19T07:00:19.467Z,100688.48
2023-01-19T07:02:49.266Z,100683.71
2023-01-19T07:05:19.601Z,100693.81
2023-01-19T07:07:57.232Z,100689.66
2023-01-19T07:10:25.346Z,100687.21
2023-01-19T07:12:53.539Z,100695.91
2023-01-19T07:15:23.790Z,100689.10
2023-01-19T07:17:51.660Z,100700.65
2023-01-19T07:20:20.805Z,100713.30
2023-01-19T07:22:48.596Z,100712.48
2023-01-19T07:25:16.620Z,100714.18
2023-01-19T07:27:46.135Z,100722.81
2023-01-19T07:30:19.201Z,100723.37
2023-01-19T07:32:47.114Z,100730.34
2023-01-19T07:35:15.633Z,100724.48
2023-01-19T07:37:48.638Z,100723.63
2023-01-19T07:40:23.339Z,100722.52
2023-01-19T07:42:52.290Z,100728.93
2023-01-19T07:45:21.766Z,100742.40
2023-01-19T07:47:50.098Z,100741.84
2023-01-19T07:50:18.887Z,100740.14
2023-01-19T07:52:46.828Z,100739.88
2023-01-19T07:55:14.664Z,100744.91
2023-01-19T07:57:42.647Z,100740.44
2023-01-19T08:00:15.556Z,100743.80
2023-01-19T08:02:43.412Z,100749.95
2023-01-19T08:05:11.198Z,100751.91
2023-01-19T08:07:39.020Z,100761.16
2023-01-19T08:10:07.421Z,100748.28
2023-01-19T08:12:35.943Z,100749.72
2023-01-19T08:15:03.756Z,100757.30
2023-01-19T08:17:31.568Z,100751.98
2023-01-19T08:19:59.499Z,100748.91
2023-01-19T08:22:27.290Z,100754.56
2023-01-19T08:24:56.100Z,100750.93
2023-01-19T08:27:23.916Z,100750.09
2023-01-19T08:29:51.761Z,100748.41
2023-01-19T08:32:20.077Z,100742.17
2023-01-19T08:34:48.092Z,100749.43
2023-01-19T08:37:16.045Z,100751.42
2023-01-19T08:39:43.864Z,100753.65
2023-01-19T08:42:11.628Z,100752.83
2023-01-19T08:44:46.683Z,100748.61
2023-01-19T08:47:21.184Z,100753.88
2023-01-19T08:49:48.967Z,100756.10
2023-01-19T08:52:16.752Z,100754.43
2023-01-19T08:54:44.620Z,100758.32
2023-01-19T08:57:12.355Z,100751.00
2023-01-19T08:59:40.144Z,100765.05
2023-01-19T09:02:08.105Z,100766.46
2023-01-19T09:04:36.669Z,100774.64
2023-01-19T09:09:32.277Z,100775.36
2023-01-19T09:12:00.053Z,100771.37
2023-01-19T09:14:27.970Z,100776.41
2023-01-19T09:16:57.308Z,100778.89
2023-01-19T09:19:26.481Z,100778.07
2023-01-19T09:21:55.987Z,100774.67
2023-01-19T09:24:23.866Z,100779.70
2023-01-19T09:26:51.744Z,100773.49
2023-01-19T09:29:19.945Z,100777.94
2023-01-19T09:31:47.757Z,100775.29
2023-01-19T09:34:15.583Z,100783.40
2023-01-19T09:36:43.470Z,100782.45
2023-01-19T09:39:12.206Z,100781.41
2023-01-19T09:41:40.164Z,100782.81
2023-01-19T09:44:08.353Z,100784.19
2023-01-19T09:46:40.816Z,100775.98
2023-01-19T09:49:36.003Z,100773.07
2023-01-19T09:52:03.897Z,100777.91
2023-01-19T09:54:42.228Z,100772.41
2023-01-19T09:57:14.799Z,100774.51
2023-01-19T09:59:44.865Z,100776.08
2023-01-19T10:02:41.017Z,100778.20
2023-01-19T10:05:25.158Z,100772.28
2023-01-19T10:08:20.666Z,100771.66
2023-01-19T10:10:58.764Z,100768.62
2023-01-19T10:13:48.245Z,100764.41
2023-01-19T10:16:54.484Z,100760.94
2023-01-19T10:19:28.157Z,100763.59
2023-01-19T10:21:57.004Z,100759.56
2023-01-19T10:24:37.241Z,100757.87
2023-01-19T10:27:05.177Z,100760.16
2023-01-19T10:29:37.475Z,100751.00
2023-01-19T10:32:09.569Z,100751.12
2023-01-19T10:34:37.955Z,100744.06
2023-01-19T10:37:13.801Z,100754.34
2023-01-19T10:39:41.886Z,100747.44
2023-01-19T10:42:11.615Z,100747.86
2023-01-19T10:44:40.168Z,100748.71
2023-01-19T10:47:07.986Z,100749.69
2023-01-19T10:49:45.829Z,100746.42
2023-01-19T10:52:33.068Z,100748.32
2023-01-19T10:55:02.150Z,100745.41
2023-01-19T10:57:40.644Z,100742.14
2023-01-19T11:00:29.179Z,100740.70
2023-01-19T11:02:57.267Z,100741.26
2023-01-19T11:05:29.971Z,100737.98
2023-01-19T11:07:57.915Z,100738.05
2023-01-19T11:10:27.442Z,100731.64
2023-01-19T11:13:00.313Z,100734.98
2023-01-19T11:16:00.449Z,100735.47
2023-01-19T11:18:35.414Z,100721.05
2023-01-19T11:21:08.732Z,100722.62
2023-01-19T11:23:43.611Z,100718.10
2023-01-19T11:26:19.321Z,100717.12
2023-01-19T11:28:53.214Z,100722.68
2023-01-19T11:31:31.082Z,100719.22
2023-01-19T11:34:25.817Z,100724.94
2023-01-19T11:37:02.169Z,100721.05
2023-01-19T11:39:31.256Z,100731.34
2023-01-19T11:42:01.242Z,100719.38
2023-01-19T11:44:32.156Z,100717.35
2023-01-19T11:47:01.484Z,100717.16
2023-01-19T11:49:40.522Z,100713.17
2023-01-19T11:52:16.236Z,100713.59
2023-01-19T11:54:51.459Z,100716.50
2023-01-19T11:57:19.546Z,100717.02
2023-01-19T11:59:47.418Z,100716.24
2023-01-19T12:02:30.453Z,100720.69
2023-01-19T12:05:00.856Z,100711.80
2023-01-19T12:07:34.994Z,100712.94
2023-01-19T12:10:21.605Z,100713.13
2023-01-19T12:12:49.337Z,100714.64
2023-01-19T12:15:37.642Z,100723.70
2023-01-19T12:18:06.646Z,100722.48
2023-01-19T12:20:45.724Z,100716.50
2023-01-19T12:23:38.399Z,100723.77
2023-01-19T12:26:25.182Z,100713.13
2023-01-19T12:28:53.430Z,100713.53
2023-01-19T12:31:24.591Z,100699.86
2023-01-19T12:33:52.600Z,100704.60
2023-01-19T12:36:36.635Z,100700.71
2023-01-19T12:39:07.315Z,100698.84
2023-01-19T12:41:35.463Z,100705.55
2023-01-19T12:44:17.266Z,100700.94
2023-01-19T12:46:55.877Z,100713.33
2023-01-19T12:49:38.902Z,100711.41
2023-01-19T12:52:29.239Z,100703.52
2023-01-19T12:55:00.848Z,100712.88
2023-01-19T12:57:36.547Z,100708.00
2023-01-19T13:00:15.238Z,100705.88
2023-01-19T13:02:47.568Z,100701.17
2023-01-19T13:05:20.052Z,100714.45
2023-01-19T13:08:16.556Z,100712.71
2023-01-19T13:10:56.167Z,100721.05
2023-01-19T13:13:23.932Z,100702.94
2023-01-19T13:15:54.782Z,100704.38
2023-01-19T13:18:29.895Z,100704.70
2023-01-19T13:21:08.290Z,100706.86
2023-01-19T13:23:54.096Z,100699.24
2023-01-19T13:26:40.449Z,100694.30
2023-01-19T13:29:09.629Z,100696.36
2023-01-19T13:31:42.671Z,100701.13
2023-01-19T13:34:24.556Z,100703.95
2023-01-19T13:36:53.781Z,100697.87
2023-01-19T13:39:30.346Z,100694.66
2023-01-19T13:42:00.559Z,100697.15
2023-01-19T13:44:30.698Z,100686.78
2023-01-19T13:47:00.600Z,100696.04
2023-01-19T13:49:38.307Z,100693.95
2023-01-19T13:52:09.018Z,100689.86
2023-01-19T13:54:36.890Z,100687.17
2023-01-19T13:57:05.007Z,100693.88
2023-01-19T13:59:33.061Z,100685.90
2023-01-19T14:02:05.718Z,100691.00
2023-01-19T14:04:35.079Z,100693.81
2023-01-19T14:07:05.109Z,100686.72
2023-01-19T14:09:33.085Z,100685.09
2023-01-19T14:12:16.849Z,100687.17
2023-01-19T14:14:49.429Z,100690.28
2023-01-19T14:17:28.559Z,100687.17
2023-01-19T14:19:57.886Z,100691.52
2023-01-19T14:22:42.352Z,100696.10
2023-01-19T14:25:32.893Z,100697.70
2023-01-19T14:28:32.215Z,100703.16
2023-01-19T14:31:01.943Z,100696.23
2023-01-19T14:33:43.540Z,100696.13
2023-01-19T14:36:12.969Z,100692.83
2023-01-19T14:38:45.734Z,100688.65
2023-01-19T14:41:16.536Z,100685.77
2023-01-19T14:43:45.454Z,100683.12
2023-01-19T14:46:20.272Z,100697.57
2023-01-19T14:48:53.681Z,100691.46
2023-01-19T14:51:23.705Z,100686.72
2023-01-19T14:53:57.986Z,100682.53
2023-01-19T14:56:36.632Z,100680.54
2023-01-19T14:59:06.765Z,100678.31
2023-01-19T15:01:34.578Z,100676.52
2023-01-19T15:04:02.427Z,100678.74
2023-01-19T15:06:30.349Z,100689.46
2023-01-19T15:08:58.275Z,100676.52
2023-01-19T15:11:35.611Z,100683.12
2023-01-19T15:14:03.506Z,100680.90
2023-01-19T15:16:32.565Z,100685.67
2023-01-19T15:19:00.373Z,100686.55
2023-01-19T15:21:28.166Z,100684.33
2023-01-19T15:23:56.414Z,100681.55
2023-01-19T15:26:25.282Z,100687.73
2023-01-19T15:28:53.266Z,100677.59
2023-01-19T15:31:22.855Z,100676.71
2023-01-19T15:33:51.035Z,100677.23
2023-01-19T15:36:20.347Z,100681.75
2023-01-19T15:38:48.367Z,100687.08
2023-01-19T15:41:27.536Z,100691.69
2023-01-19T15:43:55.365Z,100689.82
2023-01-19T15:46:24.109Z,100680.80
2023-01-19T15:48:52.100Z,100678.54
2023-01-19T15:51:23.289Z,100680.80
2023-01-19T15:53:51.512Z,100681.13
2023-01-19T15:56:25.745Z,100680.57
2023-01-19T15:58:54.377Z,100679.13
2023-01-19T16:01:32.664Z,100673.21
2023-01-19T16:04:02.324Z,100685.09
2023-01-19T16:06:30.921Z,100676.65
2023-01-19T16:09:00.863Z,100682.86
2023-01-19T16:11:30.392Z,100676.09
2023-01-19T16:13:58.208Z,100686.78
2023-01-19T16:16:26.575Z,100680.93
2023-01-19T16:18:54.487Z,100682.07
2023-01-19T16:21:22.378Z,100680.67
2023-01-19T16:23:50.265Z,100679.88
2023-01-19T16:26:35.456Z,100693.12
2023-01-19T16:29:16.345Z,100689.76
2023-01-19T16:31:44.409Z,100685.64
2023-01-19T16:34:12.502Z,100685.38
2023-01-19T16:36:41.494Z,100695.25
2023-01-19T16:39:12.231Z,100689.37
2023-01-19T16:41:40.187Z,100691.39
2023-01-19T16:44:08.159Z,100693.62
2023-01-19T16:46:37.667Z,100689.10
2023-01-19T16:49:07.899Z,100687.47
2023-01-19T16:51:35.858Z,100692.57
2023-01-19T16:54:03.626Z,100688.91
2023-01-19T16:56:31.565Z,100688.35
2023-01-19T16:59:00.006Z,100684.98
2023-01-19T17:01:28.841Z,100686.42
2023-01-19T17:03:56.944Z,100675.83
2023-01-19T17:06:24.990Z,100684.27
2023-01-19T17:08:53.205Z,100685.12
2023-01-19T17:11:22.981Z,100683.12
2023-01-19T17:13:55.915Z,100678.41
2023-01-19T17:16:24.748Z,100675.86
2023-01-19T17:18:53.585Z,100674.45
2023-01-19T17:21:21.505Z,100668.87
2023-01-19T17:23:50.433Z,100673.97
2023-01-19T17:26:23.116Z,100669.20
2023-01-19T17:28:50.912Z,100673.70
2023-01-19T17:31:22.751Z,100672.88
2023-01-19T17:33:51.391Z,100677.43
2023-01-19T17:36:24.246Z,100675.50
2023-01-19T17:38:56.176Z,100670.20
2023-01-19T17:41:28.619Z,100670.50
2023-01-19T17:43:56.891Z,100678.87
2023-01-19T17:46:38.910Z,100682.01
2023-01-19T17:49:07.589Z,100683.41
2023-01-19T17:51:35.672Z,100678.12
2023-01-19T17:54:03.749Z,100675.05
2023-01-19T17:56:34.276Z,100681.78
2023-01-19T17:59:02.072Z,100675.89
2023-01-19T18:01:32.650Z,100674.78
2023-01-19T18:04:01.881Z,100672.27
2023-01-19T18:06:35.196Z,100671.71
2023-01-19T18:09:03.141Z,100665.56
2023-01-19T18:11:31.005Z,100679.91
2023-01-19T18:13:59.564Z,100669.26
2023-01-19T18:16:28.949Z,100671.52
2023-01-19T18:18:57.212Z,100663.34
2023-01-19T18:21:25.971Z,100662.23
2023-01-19T18:23:53.968Z,100670.40
2023-01-19T18:26:23.189Z,100670.11
2023-01-19T18:28:51.070Z,100669.84
2023-01-19T18:31:19.838Z,100661.18
2023-01-19T18:33:48.937Z,100668.51
2023-01-19T18:36:17.170Z,100669.35
2023-01-19T18:38:45.283Z,100665.14
2023-01-19T18:41:15.572Z,100664.02
2023-01-19T18:43:43.638Z,100665.70
2023-01-19T18:46:11.780Z,100662.06
2023-01-19T18:48:39.927Z,100659.80
2023-01-19T18:51:09.137Z,100657.32
2023-01-19T18:53:50.227Z,100659.58
2023-01-19T18:56:21.105Z,100663.50
2023-01-19T18:58:49.070Z,100658.44
2023-01-19T19:01:21.802Z,100663.50
2023-01-19T19:03:52.670Z,100663.24
2023-01-19T19:06:21.898Z,100661.87
2023-01-19T19:08:53.097Z,100660.46
2023-01-19T19:11:21.517Z,100662.69
2023-01-19T19:13:59.734Z,100658.20
2023-01-19T19:16:27.862Z,100656.24
2023-01-19T19:18:56.072Z,100654.02
2023-01-19T19:21:26.358Z,100660.20
2023-01-19T19:23:55.615Z,100655.13
2023-01-19T19:26:23.687Z,100650.95
2023-01-19T19:28:51.603Z,100651.21
2023-01-19T19:31:21.654Z,100661.64
2023-01-19T19:33:52.353Z,100653.47
2023-01-19T19:36:21.140Z,100655.72
2023-01-19T19:38:50.109Z,100652.12
2023-01-19T19:41:22.957Z,100665.27
2023-01-19T19:43:50.960Z,100661.12
2023-01-19T19:46:21.171Z,100660.52
2023-01-19T19:49:02.956Z,100659.12
2023-01-19T19:51:35.723Z,100671.19
2023-01-19T19:54:08.337Z,100666.70
2023-01-19T19:56:36.201Z,100661.38
2023-01-19T19:59:04.138Z,100659.12
2023-01-19T20:01:34.094Z,100663.08
2023-01-19T20:04:07.181Z,100664.22
2023-01-19T20:06:39.843Z,100667.85
2023-01-19T20:09:10.341Z,100665.04
2023-01-19T20:11:43.020Z,100666.45
2023-01-19T20:14:17.464Z,100670.08
2023-01-19T20:16:50.281Z,100671.22
2023-01-19T20:19:19.476Z,100673.48
2023-01-19T20:21:47.392Z,100670.08
2023-01-19T20:24:16.643Z,100670.96
2023-01-19T20:26:50.910Z,100670.37
2023-01-19T20:29:23.590Z,100677.95
2023-01-19T20:32:02.953Z,100669.55
2023-01-19T20:34:34.397Z,100663.66
2023-01-19T20:37:02.918Z,100669.84
2023-01-19T20:39:35.820Z,100670.96
2023-01-19T20:42:03.815Z,100667.59
2023-01-19T20:44:31.781Z,100677.14
2023-01-19T20:46:59.713Z,100671.22
2023-01-19T20:49:27.640Z,100667.85
2023-01-19T20:51:55.822Z,100670.66
2023-01-19T20:54:27.391Z,100672.66
2023-01-19T20:56:55.227Z,100675.73
2023-01-19T20:59:23.198Z,100681.91
2023-01-19T21:01:51.206Z,100682.20
2023-01-19T21:04:19.091Z,100684.16
2023-01-19T21:06:46.889Z,100685.24
2023-01-19T21:09:14.785Z,100677.40
2023-01-19T21:11:47.406Z,100688.05
2023-01-19T21:14:15.369Z,100691.98
2023-01-19T21:16:43.750Z,100690.87
2023-01-19T21:19:11.679Z,100684.98
2023-01-19T21:21:39.495Z,100681.32
2023-01-19T21:24:07.629Z,100682.44
2023-01-19T21:26:35.500Z,100684.98
2023-01-19T21:29:03.911Z,100688.62
2023-01-19T21:31:31.803Z,100690.02
2023-01-19T21:33:59.774Z,100689.17
2023-01-19T21:36:27.710Z,100690.02
2023-01-19T21:39:01.297Z,100695.91
2023-01-19T21:41:29.592Z,100686.06
2023-01-19T21:43:57.485Z,100693.06
2023-01-19T21:46:33.343Z,100692.54
2023-01-19T21:49:02.716Z,100696.43
2023-01-19T21:51:31.350Z,100693.65
2023-01-19T21:54:01.182Z,100690.54
2023-01-19T21:56:29.411Z,100695.55
2023-01-19T21:58:57.862Z,100693.88
2023-01-19T22:01:25.891Z,100702.84
2023-01-19T22:03:57.413Z,100708.72
2023-01-19T22:06:25.882Z,100716.83
2023-01-19T22:08:53.947Z,100714.84
2023-01-19T22:11:26.824Z,100719.87
2023-01-19T22:13:55.317Z,100721.27
2023-01-19T22:16:23.677Z,100727.91
2023-01-19T22:18:54.212Z,100723.08
2023-01-19T22:21:23.519Z,100723.08
2023-01-19T22:23:56.084Z,100717.19
2023-01-19T22:26:24.062Z,100724.45
2023-01-19T22:29:01.562Z,100723.37
2023-01-19T22:31:34.073Z,100724.52
2023-01-19T22:34:02.027Z,100736.25
2023-01-19T22:36:31.294Z,100727.85
2023-01-19T22:39:04.390Z,100737.37
2023-01-19T22:41:35.964Z,100742.98
2023-01-19T22:44:10.886Z,100731.80
2023-01-19T22:46:38.771Z,100731.80
2023-01-19T22:49:08.635Z,100735.73
2023-01-19T22:51:36.821Z,100735.73
2023-01-19T22:54:04.720Z,100740.50
2023-01-19T22:56:33.648Z,100747.80
2023-01-19T22:59:01.848Z,100739.98
2023-01-19T23:01:34.640Z,100738.57
2023-01-19T23:04:03.336Z,100744.20
2023-01-19T23:06:35.828Z,100742.76
2023-01-19T23:09:05.729Z,100754.56
2023-01-19T23:11:38.634Z,100743.61
2023-01-19T23:14:08.530Z,100738.80
2023-01-19T23:16:36.437Z,100747.76
2023-01-19T23:19:04.415Z,100741.32
2023-01-19T23:21:32.669Z,100739.59
2023-01-19T23:24:01.771Z,100747.11
2023-01-19T23:26:30.064Z,100751.33
2023-01-19T23:28:59.754Z,100747.95
2023-01-19T23:31:29.269Z,100748.74
2023-01-19T23:33:58.440Z,100746.52
2023-01-19T23:36:27.382Z,100753.25
2023-01-19T23:39:02.574Z,100751.62
2023-01-19T23:41:35.674Z,100753.58
2023-01-19T23:44:03.530Z,100760.02
2023-01-19T23:46:31.403Z,100757.47
2023-01-19T23:48:59.268Z,100769.27
2023-01-19T23:51:28.793Z,100754.43
2023-01-19T23:53:57.594Z,100759.73
2023-01-19T23:56:31.300Z,100763.39
2023-01-19T23:59:00.678Z,100771.23
